sensor_id;sensor_type;location;lat;lon;timestamp;P1;durP1;ratioP1;P2;durP2;ratioP2
11598;SDS011;5855;48.840;9.188;2022-10-13T00:01:20;24.90;;;15.52;;
11598;SDS011;5855;48.840;9.188;2022-10-13T00:03:48;24.58;;;15.90;;
11598;SDS011;5855;48.840;9.188;2022-10-13T00:06:17;22.90;;;16.27;;
11598;SDS011;5855;48.840;9.188;2022-10-13T00:08:45;19.77;;;15.13;;
11598;SDS011;5855;48.840;9.188;2022-10-13T00:11:13;19.33;;;15.50;;
11598;SDS011;5855;48.840;9.188;2022-10-13T00:13:41;24.92;;;15.10;;
11598;SDS011;5855;48.840;9.188;2022-10-13T00:16:09;18.25;;;13.93;;
11598;SDS011;5855;48.840;9.188;2022-10-13T00:18:38;16.00;;;13.68;;
11598;SDS011;5855;48.840;9.188;2022-10-13T00:21:06;14.90;;;13.10;;
11598;SDS011;5855;48.840;9.188;2022-10-13T00:23:35;20.15;;;14.15;;
11598;SDS011;5855;48.840;9.188;2022-10-13T00:26:03;18.58;;;13.43;;
11598;SDS011;5855;48.840;9.188;2022-10-13T00:28:31;19.38;;;12.95;;
11598;SDS011;5855;48.840;9.188;2022-10-13T00:30:58;17.42;;;12.52;;
11598;SDS011;5855;48.840;9.188;2022-10-13T00:33:25;14.57;;;12.57;;
11598;SDS011;5855;48.840;9.188;2022-10-13T00:35:52;16.67;;;12.60;;
11598;SDS011;5855;48.840;9.188;2022-10-13T00:38:19;16.63;;;12.55;;
11598;SDS011;5855;48.840;9.188;2022-10-13T00:40:50;15.45;;;13.25;;
11598;SDS011;5855;48.840;9.188;2022-10-13T00:43:19;18.83;;;12.50;;
11598;SDS011;5855;48.840;9.188;2022-10-13T00:45:47;17.02;;;13.18;;
11598;SDS011;5855;48.840;9.188;2022-10-13T00:48:15;16.95;;;12.38;;
11598;SDS011;5855;48.840;9.188;2022-10-13T00:50:44;17.67;;;12.27;;
11598;SDS011;5855;48.840;9.188;2022-10-13T00:53:11;16.35;;;12.23;;
11598;SDS011;5855;48.840;9.188;2022-10-13T00:55:41;17.38;;;12.50;;
11598;SDS011;5855;48.840;9.188;2022-10-13T00:58:11;15.65;;;12.15;;
11598;SDS011;5855;48.840;9.188;2022-10-13T01:00:42;16.85;;;12.85;;
11598;SDS011;5855;48.840;9.188;2022-10-13T01:03:10;21.77;;;15.18;;
11598;SDS011;5855;48.840;9.188;2022-10-13T01:05:37;20.85;;;16.10;;
11598;SDS011;5855;48.840;9.188;2022-10-13T01:08:05;20.00;;;15.63;;
11598;SDS011;5855;48.840;9.188;2022-10-13T01:10:34;22.23;;;16.65;;
11598;SDS011;5855;48.840;9.188;2022-10-13T01:13:12;25.35;;;16.63;;
11598;SDS011;5855;48.840;9.188;2022-10-13T01:15:44;28.65;;;17.65;;
11598;SDS011;5855;48.840;9.188;2022-10-13T01:18:18;25.67;;;17.45;;
11598;SDS011;5855;48.840;9.188;2022-10-13T01:21:03;22.25;;;17.00;;
11598;SDS011;5855;48.840;9.188;2022-10-13T01:30:08;24.80;;;17.02;;
11598;SDS011;5855;48.840;9.188;2022-10-13T01:32:46;24.92;;;17.33;;
11598;SDS011;5855;48.840;9.188;2022-10-13T01:35:20;24.33;;;17.23;;
11598;SDS011;5855;48.840;9.188;2022-10-13T01:37:54;25.35;;;18.63;;
11598;SDS011;5855;48.840;9.188;2022-10-13T01:40:29;26.08;;;18.35;;
11598;SDS011;5855;48.840;9.188;2022-10-13T01:43:05;24.67;;;18.20;;
11598;SDS011;5855;48.840;9.188;2022-10-13T01:45:37;23.50;;;18.05;;
11598;SDS011;5855;48.840;9.188;2022-10-13T01:48:07;20.27;;;16.15;;
11598;SDS011;5855;48.840;9.188;2022-10-13T01:50:36;22.40;;;16.67;;
11598;SDS011;5855;48.840;9.188;2022-10-13T01:53:04;19.98;;;16.45;;
11598;SDS011;5855;48.840;9.188;2022-10-13T01:55:32;25.80;;;17.13;;
11598;SDS011;5855;48.840;9.188;2022-10-13T01:57:59;21.15;;;16.77;;
11598;SDS011;5855;48.840;9.188;2022-10-13T02:00:25;20.65;;;16.23;;
11598;SDS011;5855;48.840;9.188;2022-10-13T02:03:00;20.67;;;16.17;;
11598;SDS011;5855;48.840;9.188;2022-10-13T02:05:33;21.83;;;15.95;;
11598;SDS011;5855;48.840;9.188;2022-10-13T02:08:14;20.38;;;15.25;;
11598;SDS011;5855;48.840;9.188;2022-10-13T02:11:03;22.45;;;16.13;;
11598;SDS011;5855;48.840;9.188;2022-10-13T02:13:39;22.80;;;16.02;;
11598;SDS011;5855;48.840;9.188;2022-10-13T02:16:15;22.83;;;16.58;;
11598;SDS011;5855;48.840;9.188;2022-10-13T02:19:00;22.23;;;16.23;;
11598;SDS011;5855;48.840;9.188;2022-10-13T02:21:32;25.40;;;17.63;;
11598;SDS011;5855;48.840;9.188;2022-10-13T02:24:07;27.75;;;17.73;;
11598;SDS011;5855;48.840;9.188;2022-10-13T02:26:38;24.65;;;17.27;;
11598;SDS011;5855;48.840;9.188;2022-10-13T02:29:06;21.67;;;17.52;;
11598;SDS011;5855;48.840;9.188;2022-10-13T02:31:41;23.10;;;16.88;;
11598;SDS011;5855;48.840;9.188;2022-10-13T02:34:11;26.58;;;17.63;;
11598;SDS011;5855;48.840;9.188;2022-10-13T02:36:47;25.05;;;18.15;;
11598;SDS011;5855;48.840;9.188;2022-10-13T02:39:17;26.25;;;18.67;;
11598;SDS011;5855;48.840;9.188;2022-10-13T02:41:52;28.08;;;19.00;;
11598;SDS011;5855;48.840;9.188;2022-10-13T02:44:24;26.80;;;18.95;;
11598;SDS011;5855;48.840;9.188;2022-10-13T02:46:51;25.48;;;18.27;;
11598;SDS011;5855;48.840;9.188;2022-10-13T02:49:22;30.02;;;18.98;;
11598;SDS011;5855;48.840;9.188;2022-10-13T02:51:52;28.88;;;19.52;;
11598;SDS011;5855;48.840;9.188;2022-10-13T02:54:24;25.20;;;19.00;;
11598;SDS011;5855;48.840;9.188;2022-10-13T02:56:51;25.42;;;18.23;;
11598;SDS011;5855;48.840;9.188;2022-10-13T02:59:18;24.25;;;18.60;;
11598;SDS011;5855;48.840;9.188;2022-10-13T03:01:48;28.40;;;19.63;;
11598;SDS011;5855;48.840;9.188;2022-10-13T03:04:15;26.10;;;17.77;;
11598;SDS011;5855;48.840;9.188;2022-10-13T03:06:43;28.02;;;18.17;;
11598;SDS011;5855;48.840;9.188;2022-10-13T03:09:10;24.02;;;17.60;;
11598;SDS011;5855;48.840;9.188;2022-10-13T03:11:40;26.98;;;18.45;;
11598;SDS011;5855;48.840;9.188;2022-10-13T03:14:13;25.75;;;17.98;;
11598;SDS011;5855;48.840;9.188;2022-10-13T03:16:39;22.45;;;18.05;;
11598;SDS011;5855;48.840;9.188;2022-10-13T03:19:06;31.00;;;19.00;;
11598;SDS011;5855;48.840;9.188;2022-10-13T03:21:33;26.45;;;18.45;;
11598;SDS011;5855;48.840;9.188;2022-10-13T03:24:02;25.80;;;18.98;;
11598;SDS011;5855;48.840;9.188;2022-10-13T03:26:29;22.80;;;18.33;;
11598;SDS011;5855;48.840;9.188;2022-10-13T03:28:56;30.23;;;17.80;;
11598;SDS011;5855;48.840;9.188;2022-10-13T03:31:23;26.92;;;18.45;;
11598;SDS011;5855;48.840;9.188;2022-10-13T03:33:50;25.60;;;18.10;;
11598;SDS011;5855;48.840;9.188;2022-10-13T03:36:26;25.83;;;18.27;;
11598;SDS011;5855;48.840;9.188;2022-10-13T03:38:53;24.80;;;17.90;;
11598;SDS011;5855;48.840;9.188;2022-10-13T03:41:21;28.13;;;18.15;;
11598;SDS011;5855;48.840;9.188;2022-10-13T03:43:48;25.58;;;18.05;;
11598;SDS011;5855;48.840;9.188;2022-10-13T03:46:17;25.90;;;17.25;;
11598;SDS011;5855;48.840;9.188;2022-10-13T03:48:44;29.75;;;19.10;;
11598;SDS011;5855;48.840;9.188;2022-10-13T03:51:12;25.67;;;18.05;;
11598;SDS011;5855;48.840;9.188;2022-10-13T03:53:40;27.17;;;18.50;;
11598;SDS011;5855;48.840;9.188;2022-10-13T03:56:09;26.65;;;18.95;;
11598;SDS011;5855;48.840;9.188;2022-10-13T03:58:40;29.85;;;20.23;;
11598;SDS011;5855;48.840;9.188;2022-10-13T04:01:08;25.52;;;18.90;;
11598;SDS011;5855;48.840;9.188;2022-10-13T04:03:35;24.02;;;18.50;;
11598;SDS011;5855;48.840;9.188;2022-10-13T04:06:03;25.05;;;18.38;;
11598;SDS011;5855;48.840;9.188;2022-10-13T04:08:31;26.10;;;18.80;;
11598;SDS011;5855;48.840;9.188;2022-10-13T04:10:59;27.67;;;18.67;;
11598;SDS011;5855;48.840;9.188;2022-10-13T04:13:28;21.55;;;18.15;;
11598;SDS011;5855;48.840;9.188;2022-10-13T04:15:58;29.02;;;17.92;;
11598;SDS011;5855;48.840;9.188;2022-10-13T04:18:27;27.73;;;18.35;;
11598;SDS011;5855;48.840;9.188;2022-10-13T04:20:54;31.35;;;18.83;;
11598;SDS011;5855;48.840;9.188;2022-10-13T04:23:21;25.52;;;17.90;;
11598;SDS011;5855;48.840;9.188;2022-10-13T04:25:48;23.33;;;17.30;;
11598;SDS011;5855;48.840;9.188;2022-10-13T04:28:15;24.33;;;17.55;;
11598;SDS011;5855;48.840;9.188;2022-10-13T04:30:42;29.38;;;17.75;;
11598;SDS011;5855;48.840;9.188;2022-10-13T04:33:10;25.38;;;17.15;;
11598;SDS011;5855;48.840;9.188;2022-10-13T04:35:38;29.02;;;18.25;;
11598;SDS011;5855;48.840;9.188;2022-10-13T04:38:05;20.17;;;16.83;;
11598;SDS011;5855;48.840;9.188;2022-10-13T04:40:32;23.10;;;16.73;;
11598;SDS011;5855;48.840;9.188;2022-10-13T04:43:00;21.48;;;16.30;;
11598;SDS011;5855;48.840;9.188;2022-10-13T04:45:26;22.35;;;16.10;;
11598;SDS011;5855;48.840;9.188;2022-10-13T04:47:53;23.98;;;16.02;;
11598;SDS011;5855;48.840;9.188;2022-10-13T04:50:21;21.88;;;16.13;;
11598;SDS011;5855;48.840;9.188;2022-10-13T04:52:48;20.10;;;15.43;;
11598;SDS011;5855;48.840;9.188;2022-10-13T04:55:15;22.67;;;15.70;;
11598;SDS011;5855;48.840;9.188;2022-10-13T04:57:42;19.25;;;14.90;;
11598;SDS011;5855;48.840;9.188;2022-10-13T05:00:09;21.00;;;16.10;;
11598;SDS011;5855;48.840;9.188;2022-10-13T05:02:37;22.60;;;14.85;;
11598;SDS011;5855;48.840;9.188;2022-10-13T05:05:04;18.50;;;14.70;;
11598;SDS011;5855;48.840;9.188;2022-10-13T05:07:33;19.30;;;14.10;;
11598;SDS011;5855;48.840;9.188;2022-10-13T05:09:59;22.42;;;14.40;;
11598;SDS011;5855;48.840;9.188;2022-10-13T05:12:26;20.50;;;14.48;;
11598;SDS011;5855;48.840;9.188;2022-10-13T05:14:53;24.02;;;14.52;;
11598;SDS011;5855;48.840;9.188;2022-10-13T05:17:21;19.63;;;13.10;;
11598;SDS011;5855;48.840;9.188;2022-10-13T05:19:47;23.48;;;13.80;;
11598;SDS011;5855;48.840;9.188;2022-10-13T05:22:14;17.88;;;13.90;;
11598;SDS011;5855;48.840;9.188;2022-10-13T05:24:43;18.65;;;14.15;;
11598;SDS011;5855;48.840;9.188;2022-10-13T05:27:10;18.45;;;14.77;;
11598;SDS011;5855;48.840;9.188;2022-10-13T05:29:38;19.55;;;14.93;;
11598;SDS011;5855;48.840;9.188;2022-10-13T05:32:05;18.35;;;13.93;;
11598;SDS011;5855;48.840;9.188;2022-10-13T05:34:32;19.30;;;14.55;;
11598;SDS011;5855;48.840;9.188;2022-10-13T05:37:01;19.35;;;13.75;;
11598;SDS011;5855;48.840;9.188;2022-10-13T05:39:28;16.52;;;12.80;;
11598;SDS011;5855;48.840;9.188;2022-10-13T05:41:57;19.23;;;14.18;;
11598;SDS011;5855;48.840;9.188;2022-10-13T05:44:24;18.52;;;13.32;;
11598;SDS011;5855;48.840;9.188;2022-10-13T05:46:51;18.15;;;13.13;;
11598;SDS011;5855;48.840;9.188;2022-10-13T05:49:18;19.23;;;13.65;;
11598;SDS011;5855;48.840;9.188;2022-10-13T05:51:45;18.20;;;13.43;;
11598;SDS011;5855;48.840;9.188;2022-10-13T05:54:16;16.80;;;13.25;;
11598;SDS011;5855;48.840;9.188;2022-10-13T05:56:48;17.63;;;12.80;;
11598;SDS011;5855;48.840;9.188;2022-10-13T05:59:21;17.27;;;12.82;;
11598;SDS011;5855;48.840;9.188;2022-10-13T06:01:50;17.17;;;13.18;;
11598;SDS011;5855;48.840;9.188;2022-10-13T06:04:19;17.48;;;13.18;;
11598;SDS011;5855;48.840;9.188;2022-10-13T06:06:50;17.45;;;13.77;;
11598;SDS011;5855;48.840;9.188;2022-10-13T06:09:17;19.73;;;13.63;;
11598;SDS011;5855;48.840;9.188;2022-10-13T06:11:44;15.35;;;12.93;;
11598;SDS011;5855;48.840;9.188;2022-10-13T06:14:11;18.25;;;13.50;;
11598;SDS011;5855;48.840;9.188;2022-10-13T06:16:39;19.40;;;14.05;;
11598;SDS011;5855;48.840;9.188;2022-10-13T06:19:06;19.40;;;14.70;;
11598;SDS011;5855;48.840;9.188;2022-10-13T06:21:33;21.35;;;15.10;;
11598;SDS011;5855;48.840;9.188;2022-10-13T06:24:00;20.17;;;15.38;;
11598;SDS011;5855;48.840;9.188;2022-10-13T06:26:27;18.02;;;13.70;;
11598;SDS011;5855;48.840;9.188;2022-10-13T06:28:54;19.63;;;14.00;;
11598;SDS011;5855;48.840;9.188;2022-10-13T06:31:21;22.48;;;14.23;;
11598;SDS011;5855;48.840;9.188;2022-10-13T06:33:50;21.15;;;14.00;;
11598;SDS011;5855;48.840;9.188;2022-10-13T06:36:16;21.48;;;16.33;;
11598;SDS011;5855;48.840;9.188;2022-10-13T06:38:43;24.23;;;15.18;;
11598;SDS011;5855;48.840;9.188;2022-10-13T06:41:11;20.38;;;15.10;;
11598;SDS011;5855;48.840;9.188;2022-10-13T06:43:38;23.70;;;15.23;;
11598;SDS011;5855;48.840;9.188;2022-10-13T06:46:05;21.70;;;15.55;;
11598;SDS011;5855;48.840;9.188;2022-10-13T06:48:33;23.23;;;14.63;;
11598;SDS011;5855;48.840;9.188;2022-10-13T06:51:01;20.90;;;15.80;;
11598;SDS011;5855;48.840;9.188;2022-10-13T06:53:29;22.20;;;15.52;;
11598;SDS011;5855;48.840;9.188;2022-10-13T06:55:56;19.00;;;14.57;;
11598;SDS011;5855;48.840;9.188;2022-10-13T06:58:23;20.27;;;14.40;;
11598;SDS011;5855;48.840;9.188;2022-10-13T07:00:49;22.70;;;16.58;;
11598;SDS011;5855;48.840;9.188;2022-10-13T07:03:16;21.50;;;15.88;;
11598;SDS011;5855;48.840;9.188;2022-10-13T07:05:43;21.13;;;14.23;;
11598;SDS011;5855;48.840;9.188;2022-10-13T07:08:11;16.33;;;13.10;;
11598;SDS011;5855;48.840;9.188;2022-10-13T07:10:39;21.65;;;13.40;;
11598;SDS011;5855;48.840;9.188;2022-10-13T07:13:06;18.65;;;13.20;;
11598;SDS011;5855;48.840;9.188;2022-10-13T07:15:35;21.55;;;14.95;;
11598;SDS011;5855;48.840;9.188;2022-10-13T07:18:03;19.20;;;14.43;;
11598;SDS011;5855;48.840;9.188;2022-10-13T07:20:29;17.88;;;13.20;;
11598;SDS011;5855;48.840;9.188;2022-10-13T07:22:56;22.67;;;14.00;;
11598;SDS011;5855;48.840;9.188;2022-10-13T07:25:24;17.15;;;13.23;;
11598;SDS011;5855;48.840;9.188;2022-10-13T07:27:51;21.50;;;13.80;;
11598;SDS011;5855;48.840;9.188;2022-10-13T07:30:18;20.13;;;14.45;;
11598;SDS011;5855;48.840;9.188;2022-10-13T07:32:45;19.27;;;13.63;;
11598;SDS011;5855;48.840;9.188;2022-10-13T07:35:12;20.35;;;13.95;;
11598;SDS011;5855;48.840;9.188;2022-10-13T07:37:39;19.30;;;12.63;;
11598;SDS011;5855;48.840;9.188;2022-10-13T07:40:06;16.45;;;12.45;;
11598;SDS011;5855;48.840;9.188;2022-10-13T07:42:35;20.05;;;13.30;;
11598;SDS011;5855;48.840;9.188;2022-10-13T07:45:02;18.13;;;13.10;;
11598;SDS011;5855;48.840;9.188;2022-10-13T07:47:29;18.88;;;13.23;;
11598;SDS011;5855;48.840;9.188;2022-10-13T07:49:56;20.20;;;13.52;;
11598;SDS011;5855;48.840;9.188;2022-10-13T07:52:23;18.70;;;12.93;;
11598;SDS011;5855;48.840;9.188;2022-10-13T07:54:50;22.75;;;12.77;;
11598;SDS011;5855;48.840;9.188;2022-10-13T07:57:16;17.48;;;12.40;;
11598;SDS011;5855;48.840;9.188;2022-10-13T07:59:45;17.85;;;12.55;;
11598;SDS011;5855;48.840;9.188;2022-10-13T08:02:12;16.83;;;12.32;;
11598;SDS011;5855;48.840;9.188;2022-10-13T08:04:39;16.05;;;11.73;;
11598;SDS011;5855;48.840;9.188;2022-10-13T08:07:06;18.90;;;11.27;;
11598;SDS011;5855;48.840;9.188;2022-10-13T08:09:33;15.60;;;11.15;;
11598;SDS011;5855;48.840;9.188;2022-10-13T08:12:00;16.40;;;11.23;;
11598;SDS011;5855;48.840;9.188;2022-10-13T08:14:27;20.23;;;11.65;;
11598;SDS011;5855;48.840;9.188;2022-10-13T08:16:55;13.93;;;9.85;;
11598;SDS011;5855;48.840;9.188;2022-10-13T08:19:22;19.15;;;10.80;;
11598;SDS011;5855;48.840;9.188;2022-10-13T08:21:50;21.08;;;11.15;;
11598;SDS011;5855;48.840;9.188;2022-10-13T08:24:17;15.68;;;10.52;;
11598;SDS011;5855;48.840;9.188;2022-10-13T08:26:46;42.08;;;14.40;;
11598;SDS011;5855;48.840;9.188;2022-10-13T08:29:14;19.88;;;10.82;;
11598;SDS011;5855;48.840;9.188;2022-10-13T08:31:41;15.40;;;10.80;;
11598;SDS011;5855;48.840;9.188;2022-10-13T08:34:09;21.45;;;11.18;;
11598;SDS011;5855;48.840;9.188;2022-10-13T08:36:37;18.45;;;10.75;;
11598;SDS011;5855;48.840;9.188;2022-10-13T08:39:04;13.93;;;9.57;;
11598;SDS011;5855;48.840;9.188;2022-10-13T08:41:32;14.82;;;9.70;;
11598;SDS011;5855;48.840;9.188;2022-10-13T08:44:03;17.83;;;9.98;;
11598;SDS011;5855;48.840;9.188;2022-10-13T08:46:32;17.20;;;10.38;;
11598;SDS011;5855;48.840;9.188;2022-10-13T08:49:07;17.30;;;10.43;;
11598;SDS011;5855;48.840;9.188;2022-10-13T08:51:35;13.25;;;9.40;;
11598;SDS011;5855;48.840;9.188;2022-10-13T08:54:03;19.25;;;10.55;;
11598;SDS011;5855;48.840;9.188;2022-10-13T08:56:30;14.05;;;9.38;;
11598;SDS011;5855;48.840;9.188;2022-10-13T08:58:59;13.18;;;8.80;;
11598;SDS011;5855;48.840;9.188;2022-10-13T09:01:29;18.20;;;9.73;;
11598;SDS011;5855;48.840;9.188;2022-10-13T09:03:59;14.75;;;8.77;;
11598;SDS011;5855;48.840;9.188;2022-10-13T09:06:43;13.07;;;8.57;;
11598;SDS011;5855;48.840;9.188;2022-10-13T09:09:13;12.65;;;9.18;;
11598;SDS011;5855;48.840;9.188;2022-10-13T09:11:42;12.15;;;8.32;;
11598;SDS011;5855;48.840;9.188;2022-10-13T09:14:10;18.30;;;9.32;;
11598;SDS011;5855;48.840;9.188;2022-10-13T09:16:44;17.33;;;8.93;;
11598;SDS011;5855;48.840;9.188;2022-10-13T09:19:12;15.60;;;8.40;;
11598;SDS011;5855;48.840;9.188;2022-10-13T09:21:45;11.80;;;8.13;;
11598;SDS011;5855;48.840;9.188;2022-10-13T09:24:17;12.90;;;8.52;;
11598;SDS011;5855;48.840;9.188;2022-10-13T09:26:47;10.73;;;7.75;;
11598;SDS011;5855;48.840;9.188;2022-10-13T09:29:16;14.35;;;8.15;;
11598;SDS011;5855;48.840;9.188;2022-10-13T09:31:45;16.73;;;8.15;;
11598;SDS011;5855;48.840;9.188;2022-10-13T09:34:21;12.50;;;7.75;;
11598;SDS011;5855;48.840;9.188;2022-10-13T09:36:57;12.77;;;7.30;;
11598;SDS011;5855;48.840;9.188;2022-10-13T09:39:25;14.25;;;7.03;;
11598;SDS011;5855;48.840;9.188;2022-10-13T09:42:07;12.70;;;7.63;;
11598;SDS011;5855;48.840;9.188;2022-10-13T09:44:44;13.02;;;7.20;;
11598;SDS011;5855;48.840;9.188;2022-10-13T09:47:16;12.65;;;7.10;;
11598;SDS011;5855;48.840;9.188;2022-10-13T09:49:45;11.55;;;6.53;;
11598;SDS011;5855;48.840;9.188;2022-10-13T09:52:26;11.82;;;6.75;;
11598;SDS011;5855;48.840;9.188;2022-10-13T09:54:55;12.90;;;6.85;;
11598;SDS011;5855;48.840;9.188;2022-10-13T09:57:25;9.88;;;6.35;;
11598;SDS011;5855;48.840;9.188;2022-10-13T09:59:57;14.15;;;7.15;;
11598;SDS011;5855;48.840;9.188;2022-10-13T10:02:32;11.65;;;6.72;;
11598;SDS011;5855;48.840;9.188;2022-10-13T10:05:04;11.65;;;6.18;;
11598;SDS011;5855;48.840;9.188;2022-10-13T10:07:34;13.20;;;6.20;;
11598;SDS011;5855;48.840;9.188;2022-10-13T10:10:02;12.63;;;6.47;;
11598;SDS011;5855;48.840;9.188;2022-10-13T10:12:34;10.57;;;5.90;;
11598;SDS011;5855;48.840;9.188;2022-10-13T10:15:13;12.25;;;5.78;;
11598;SDS011;5855;48.840;9.188;2022-10-13T10:17:45;9.15;;;6.10;;
11598;SDS011;5855;48.840;9.188;2022-10-13T10:20:24;10.13;;;6.22;;
11598;SDS011;5855;48.840;9.188;2022-10-13T10:23:04;10.85;;;6.03;;
11598;SDS011;5855;48.840;9.188;2022-10-13T10:25:36;12.13;;;6.68;;
11598;SDS011;5855;48.840;9.188;2022-10-13T10:28:12;9.70;;;5.93;;
11598;SDS011;5855;48.840;9.188;2022-10-13T10:30:48;13.10;;;6.13;;
11598;SDS011;5855;48.840;9.188;2022-10-13T10:33:22;7.30;;;5.22;;
11598;SDS011;5855;48.840;9.188;2022-10-13T10:36:01;10.63;;;5.43;;
11598;SDS011;5855;48.840;9.188;2022-10-13T10:38:42;14.43;;;6.22;;
11598;SDS011;5855;48.840;9.188;2022-10-13T10:41:12;9.38;;;4.85;;
11598;SDS011;5855;48.840;9.188;2022-10-13T10:43:50;11.30;;;5.25;;
11598;SDS011;5855;48.840;9.188;2022-10-13T10:46:20;8.45;;;5.20;;
11598;SDS011;5855;48.840;9.188;2022-10-13T10:48:50;10.20;;;5.28;;
11598;SDS011;5855;48.840;9.188;2022-10-13T10:51:20;12.82;;;6.03;;
11598;SDS011;5855;48.840;9.188;2022-10-13T10:53:54;9.60;;;5.70;;
11598;SDS011;5855;48.840;9.188;2022-10-13T10:56:27;9.85;;;5.78;;
11598;SDS011;5855;48.840;9.188;2022-10-13T10:59:04;10.35;;;5.35;;
11598;SDS011;5855;48.840;9.188;2022-10-13T11:01:48;11.95;;;5.65;;
11598;SDS011;5855;48.840;9.188;2022-10-13T11:04:33;10.18;;;5.13;;
11598;SDS011;5855;48.840;9.188;2022-10-13T11:07:08;9.93;;;5.50;;
11598;SDS011;5855;48.840;9.188;2022-10-13T11:15:26;10.98;;;5.70;;
11598;SDS011;5855;48.840;9.188;2022-10-13T11:17:57;7.85;;;4.85;;
11598;SDS011;5855;48.840;9.188;2022-10-13T11:23:29;9.40;;;4.90;;
11598;SDS011;5855;48.840;9.188;2022-10-13T11:28:56;8.65;;;4.90;;
11598;SDS011;5855;48.840;9.188;2022-10-13T11:31:25;8.15;;;5.05;;
11598;SDS011;5855;48.840;9.188;2022-10-13T11:33:58;9.70;;;5.25;;
11598;SDS011;5855;48.840;9.188;2022-10-13T11:36:36;11.23;;;5.32;;
11598;SDS011;5855;48.840;9.188;2022-10-13T11:45:13;6.55;;;4.00;;
11598;SDS011;5855;48.840;9.188;2022-10-13T11:47:57;7.30;;;4.18;;
11598;SDS011;5855;48.840;9.188;2022-10-13T11:50:57;7.90;;;4.80;;
11598;SDS011;5855;48.840;9.188;2022-10-13T11:53:38;6.10;;;4.82;;
11598;SDS011;5855;48.840;9.188;2022-10-13T11:56:17;13.00;;;5.18;;
11598;SDS011;5855;48.840;9.188;2022-10-13T11:58:47;8.73;;;4.88;;
11598;SDS011;5855;48.840;9.188;2022-10-13T12:01:14;8.48;;;4.80;;
11598;SDS011;5855;48.840;9.188;2022-10-13T12:03:43;10.85;;;5.30;;
11598;SDS011;5855;48.840;9.188;2022-10-13T12:08:59;7.93;;;5.07;;
11598;SDS011;5855;48.840;9.188;2022-10-13T12:11:30;7.43;;;4.85;;
11598;SDS011;5855;48.840;9.188;2022-10-13T12:14:00;8.48;;;4.72;;
11598;SDS011;5855;48.840;9.188;2022-10-13T12:16:27;9.27;;;4.80;;
11598;SDS011;5855;48.840;9.188;2022-10-13T12:19:05;11.77;;;4.38;;
11598;SDS011;5855;48.840;9.188;2022-10-13T12:21:33;5.55;;;3.72;;
11598;SDS011;5855;48.840;9.188;2022-10-13T12:24:06;6.65;;;4.15;;
11598;SDS011;5855;48.840;9.188;2022-10-13T12:26:34;8.80;;;4.30;;
11598;SDS011;5855;48.840;9.188;2022-10-13T12:29:02;6.72;;;3.92;;
11598;SDS011;5855;48.840;9.188;2022-10-13T12:31:38;8.60;;;4.40;;
11598;SDS011;5855;48.840;9.188;2022-10-13T12:34:12;5.00;;;4.20;;
11598;SDS011;5855;48.840;9.188;2022-10-13T12:36:44;7.22;;;4.55;;
11598;SDS011;5855;48.840;9.188;2022-10-13T12:39:16;8.73;;;4.05;;
11598;SDS011;5855;48.840;9.188;2022-10-13T12:41:45;7.00;;;3.85;;
11598;SDS011;5855;48.840;9.188;2022-10-13T12:44:15;9.38;;;3.50;;
11598;SDS011;5855;48.840;9.188;2022-10-13T12:46:46;5.10;;;3.28;;
11598;SDS011;5855;48.840;9.188;2022-10-13T12:49:18;5.28;;;3.65;;
11598;SDS011;5855;48.840;9.188;2022-10-13T12:51:46;9.65;;;3.83;;
11598;SDS011;5855;48.840;9.188;2022-10-13T12:54:17;6.75;;;3.60;;
11598;SDS011;5855;48.840;9.188;2022-10-13T12:56:50;5.18;;;3.55;;
11598;SDS011;5855;48.840;9.188;2022-10-13T12:59:21;5.93;;;3.42;;
11598;SDS011;5855;48.840;9.188;2022-10-13T13:01:53;6.68;;;3.55;;
11598;SDS011;5855;48.840;9.188;2022-10-13T13:07:27;4.10;;;3.05;;
11598;SDS011;5855;48.840;9.188;2022-10-13T13:09:58;6.05;;;3.03;;
11598;SDS011;5855;48.840;9.188;2022-10-13T13:12:40;5.72;;;3.13;;
11598;SDS011;5855;48.840;9.188;2022-10-13T13:15:19;6.45;;;2.92;;
11598;SDS011;5855;48.840;9.188;2022-10-13T13:20:53;7.40;;;3.50;;
11598;SDS011;5855;48.840;9.188;2022-10-13T13:23:21;5.35;;;3.67;;
11598;SDS011;5855;48.840;9.188;2022-10-13T13:25:58;7.50;;;3.28;;
11598;SDS011;5855;48.840;9.188;2022-10-13T13:28:27;7.63;;;3.30;;
11598;SDS011;5855;48.840;9.188;2022-10-13T13:30:56;7.05;;;3.45;;
11598;SDS011;5855;48.840;9.188;2022-10-13T13:33:23;5.22;;;3.28;;
11598;SDS011;5855;48.840;9.188;2022-10-13T13:35:50;10.27;;;3.92;;
11598;SDS011;5855;48.840;9.188;2022-10-13T13:38:17;7.70;;;3.80;;
11598;SDS011;5855;48.840;9.188;2022-10-13T13:40:44;7.10;;;3.17;;
11598;SDS011;5855;48.840;9.188;2022-10-13T13:43:10;8.45;;;3.33;;
11598;SDS011;5855;48.840;9.188;2022-10-13T13:45:37;5.80;;;3.22;;
11598;SDS011;5855;48.840;9.188;2022-10-13T13:48:06;6.95;;;3.28;;
11598;SDS011;5855;48.840;9.188;2022-10-13T13:50:35;6.88;;;3.60;;
11598;SDS011;5855;48.840;9.188;2022-10-13T13:53:02;8.23;;;3.25;;
11598;SDS011;5855;48.840;9.188;2022-10-13T13:55:30;5.90;;;3.45;;
11598;SDS011;5855;48.840;9.188;2022-10-13T13:57:57;8.68;;;3.90;;
11598;SDS011;5855;48.840;9.188;2022-10-13T14:00:24;12.45;;;3.80;;
11598;SDS011;5855;48.840;9.188;2022-10-13T14:02:51;5.18;;;3.15;;
11598;SDS011;5855;48.840;9.188;2022-10-13T14:05:19;7.00;;;3.70;;
11598;SDS011;5855;48.840;9.188;2022-10-13T14:07:46;6.30;;;3.78;;
11598;SDS011;5855;48.840;9.188;2022-10-13T14:10:13;5.95;;;3.70;;
11598;SDS011;5855;48.840;9.188;2022-10-13T14:12:40;7.15;;;3.63;;
11598;SDS011;5855;48.840;9.188;2022-10-13T14:15:07;10.00;;;3.70;;
11598;SDS011;5855;48.840;9.188;2022-10-13T14:17:35;6.25;;;3.53;;
11598;SDS011;5855;48.840;9.188;2022-10-13T14:20:02;7.40;;;4.00;;
11598;SDS011;5855;48.840;9.188;2022-10-13T14:22:30;6.40;;;3.78;;
11598;SDS011;5855;48.840;9.188;2022-10-13T14:24:57;5.35;;;3.95;;
11598;SDS011;5855;48.840;9.188;2022-10-13T14:27:24;7.05;;;3.67;;
11598;SDS011;5855;48.840;9.188;2022-10-13T14:29:51;5.63;;;3.60;;
11598;SDS011;5855;48.840;9.188;2022-10-13T14:32:18;8.23;;;4.10;;
11598;SDS011;5855;48.840;9.188;2022-10-13T14:34:44;7.30;;;3.90;;
11598;SDS011;5855;48.840;9.188;2022-10-13T14:37:11;9.73;;;6.20;;
11598;SDS011;5855;48.840;9.188;2022-10-13T14:39:39;15.95;;;10.27;;
11598;SDS011;5855;48.840;9.188;2022-10-13T14:42:06;13.27;;;7.00;;
11598;SDS011;5855;48.840;9.188;2022-10-13T14:44:33;11.05;;;5.05;;
11598;SDS011;5855;48.840;9.188;2022-10-13T14:47:00;9.73;;;5.95;;
11598;SDS011;5855;48.840;9.188;2022-10-13T14:49:26;11.40;;;6.50;;
11598;SDS011;5855;48.840;9.188;2022-10-13T14:51:53;9.40;;;4.90;;
11598;SDS011;5855;48.840;9.188;2022-10-13T14:54:20;9.73;;;4.75;;
11598;SDS011;5855;48.840;9.188;2022-10-13T14:56:48;8.50;;;4.45;;
11598;SDS011;5855;48.840;9.188;2022-10-13T14:59:16;9.23;;;5.03;;
11598;SDS011;5855;48.840;9.188;2022-10-13T15:01:43;8.60;;;4.47;;
11598;SDS011;5855;48.840;9.188;2022-10-13T15:04:12;11.27;;;5.70;;
11598;SDS011;5855;48.840;9.188;2022-10-13T15:06:39;10.38;;;5.30;;
11598;SDS011;5855;48.840;9.188;2022-10-13T15:09:06;8.38;;;5.55;;
11598;SDS011;5855;48.840;9.188;2022-10-13T15:11:34;6.80;;;5.55;;
11598;SDS011;5855;48.840;9.188;2022-10-13T15:14:02;15.38;;;5.93;;
11598;SDS011;5855;48.840;9.188;2022-10-13T15:16:30;7.80;;;5.85;;
11598;SDS011;5855;48.840;9.188;2022-10-13T15:18:57;10.15;;;5.95;;
11598;SDS011;5855;48.840;9.188;2022-10-13T15:21:25;9.45;;;6.05;;
11598;SDS011;5855;48.840;9.188;2022-10-13T15:23:52;9.45;;;6.05;;
11598;SDS011;5855;48.840;9.188;2022-10-13T15:26:20;9.90;;;6.15;;
11598;SDS011;5855;48.840;9.188;2022-10-13T15:28:48;10.18;;;5.95;;
11598;SDS011;5855;48.840;9.188;2022-10-13T15:31:18;9.95;;;6.15;;